sensor_id;sensor_type;location;lat;lon;timestamp;pressure;altitude;pressure_sealevel;temperature;humidity
6028;BME280;3042;43.194;27.646;2024-03-29T00:02:08;101176.88;;;16.82;100.00
6028;BME280;3042;43.194;27.646;2024-03-29T00:04:34;101184.44;;;16.73;100.00
6028;BME280;3042;43.194;27.646;2024-03-29T00:07:00;101189.59;;;16.70;100.00
6028;BME280;3042;43.194;27.646;2024-03-29T00:09:27;101154.88;;;16.40;100.00
6028;BME280;3042;43.194;27.646;2024-03-29T00:11:54;101191.66;;;16.50;100.00
6028;BME280;3042;43.194;27.646;2024-03-29T00:14:22;101198.66;;;16.51;100.00
6028;BME280;3042;43.194;27.646;2024-03-29T00:16:49;101202.88;;;16.47;100.00
6028;BME280;3042;43.194;27.646;2024-03-29T00:19:20;101196.03;;;16.51;100.00
6028;BME280;3042;43.194;27.646;2024-03-29T00:21:51;101209.09;;;16.52;100.00
6028;BME280;3042;43.194;27.646;2024-03-29T00:24:19;101207.09;;;16.42;100.00
6028;BME280;3042;43.194;27.646;2024-03-29T00:26:45;101167.28;;;16.17;100.00
6028;BME280;3042;43.194;27.646;2024-03-29T00:29:13;101172.28;;;16.10;100.00
6028;BME280;3042;43.194;27.646;2024-03-29T00:31:45;101178.38;;;16.10;100.00
6028;BME280;3042;43.194;27.646;2024-03-29T00:34:13;101177.69;;;16.17;100.00
6028;BME280;3042;43.194;27.646;2024-03-29T00:36:41;101213.84;;;16.35;100.00
6028;BME280;3042;43.194;27.646;2024-03-29T00:39:10;101206.16;;;16.40;100.00
6028;BME280;3042;43.194;27.646;2024-03-29T00:41:36;101204.31;;;16.36;100.00
6028;BME280;3042;43.194;27.646;2024-03-29T00:44:02;101209.44;;;16.33;100.00
6028;BME280;3042;43.194;27.646;2024-03-29T00:46:29;101200.88;;;16.37;100.00
6028;BME280;3042;43.194;27.646;2024-03-29T00:48:56;101203.63;;;16.41;100.00
6028;BME280;3042;43.194;27.646;2024-03-29T00:51:22;101208.97;;;16.48;100.00
6028;BME280;3042;43.194;27.646;2024-03-29T00:53:48;101195.84;;;16.44;100.00
6028;BME280;3042;43.194;27.646;2024-03-29T00:56:15;101201.69;;;16.34;100.00
6028;BME280;3042;43.194;27.646;2024-03-29T00:58:41;101132.63;;;15.90;100.00
6028;BME280;3042;43.194;27.646;2024-03-29T01:01:07;101202.47;;;16.01;100.00
6028;BME280;3042;43.194;27.646;2024-03-29T01:03:37;101204.81;;;15.94;100.00
6028;BME280;3042;43.194;27.646;2024-03-29T01:06:10;101196.72;;;15.83;100.00
6028;BME280;3042;43.194;27.646;2024-03-29T01:08:41;101198.84;;;15.69;100.00
6028;BME280;3042;43.194;27.646;2024-03-29T01:11:11;101203.56;;;15.54;100.00
6028;BME280;3042;43.194;27.646;2024-03-29T01:13:39;101206.66;;;15.40;100.00
6028;BME280;3042;43.194;27.646;2024-03-29T01:16:10;101209.50;;;15.50;100.00
6028;BME280;3042;43.194;27.646;2024-03-29T01:18:41;101213.91;;;15.51;100.00
6028;BME280;3042;43.194;27.646;2024-03-29T01:21:10;101143.34;;;15.16;100.00
6028;BME280;3042;43.194;27.646;2024-03-29T01:23:36;101209.88;;;15.60;100.00
6028;BME280;3042;43.194;27.646;2024-03-29T01:26:02;101206.19;;;15.54;100.00
6028;BME280;3042;43.194;27.646;2024-03-29T01:28:28;101210.81;;;15.62;100.00
6028;BME280;3042;43.194;27.646;2024-03-29T01:30:55;101217.63;;;15.59;100.00
6028;BME280;3042;43.194;27.646;2024-03-29T01:33:21;101223.75;;;15.59;100.00
6028;BME280;3042;43.194;27.646;2024-03-29T01:35:49;101218.41;;;15.56;100.00
6028;BME280;3042;43.194;27.646;2024-03-29T01:38:23;101228.22;;;15.38;100.00
6028;BME280;3042;43.194;27.646;2024-03-29T01:40:51;101228.72;;;15.26;100.00
6028;BME280;3042;43.194;27.646;2024-03-29T01:43:19;101222.84;;;15.32;100.00
6028;BME280;3042;43.194;27.646;2024-03-29T01:45:52;101224.28;;;15.24;100.00
6028;BME280;3042;43.194;27.646;2024-03-29T01:48:23;101233.53;;;15.14;100.00
6028;BME280;3042;43.194;27.646;2024-03-29T01:50:55;101223.81;;;14.84;100.00
6028;BME280;3042;43.194;27.646;2024-03-29T01:53:26;101225.84;;;14.91;100.00
6028;BME280;3042;43.194;27.646;2024-03-29T01:55:57;101231.63;;;15.10;100.00
6028;BME280;3042;43.194;27.646;2024-03-29T01:58:29;101233.03;;;15.24;100.00
6028;BME280;3042;43.194;27.646;2024-03-29T02:01:02;101242.28;;;15.16;100.00
6028;BME280;3042;43.194;27.646;2024-03-29T02:03:32;101215.63;;;14.97;100.00
6028;BME280;3042;43.194;27.646;2024-03-29T02:06:00;101247.06;;;15.04;100.00
6028;BME280;3042;43.194;27.646;2024-03-29T02:08:30;101154.16;;;14.51;100.00
6028;BME280;3042;43.194;27.646;2024-03-29T02:10:58;101246.38;;;15.09;100.00
6028;BME280;3042;43.194;27.646;2024-03-29T02:13:25;101193.28;;;14.78;100.00
6028;BME280;3042;43.194;27.646;2024-03-29T02:15:52;101250.72;;;15.09;100.00
6028;BME280;3042;43.194;27.646;2024-03-29T02:18:20;101256.69;;;15.06;100.00
6028;BME280;3042;43.194;27.646;2024-03-29T02:20:47;101268.06;;;15.10;100.00
6028;BME280;3042;43.194;27.646;2024-03-29T02:23:18;101252.94;;;14.98;100.00
6028;BME280;3042;43.194;27.646;2024-03-29T02:25:48;101273.09;;;15.04;100.00
6028;BME280;3042;43.194;27.646;2024-03-29T02:28:16;101165.69;;;14.34;100.00
6028;BME280;3042;43.194;27.646;2024-03-29T02:30:46;101230.25;;;14.70;100.00
6028;BME280;3042;43.194;27.646;2024-03-29T02:33:17;101276.00;;;14.87;100.00
6028;BME280;3042;43.194;27.646;2024-03-29T02:35:45;101286.41;;;14.87;100.00
6028;BME280;3042;43.194;27.646;2024-03-29T02:38:14;101285.97;;;15.01;100.00
6028;BME280;3042;43.194;27.646;2024-03-29T02:40:49;101278.41;;;15.07;100.00
6028;BME280;3042;43.194;27.646;2024-03-29T02:43:21;101288.13;;;15.12;100.00
6028;BME280;3042;43.194;27.646;2024-03-29T02:45:55;101258.41;;;15.06;100.00
6028;BME280;3042;43.194;27.646;2024-03-29T02:48:24;101287.78;;;15.27;100.00
6028;BME280;3042;43.194;27.646;2024-03-29T02:50:52;101288.09;;;15.36;100.00
6028;BME280;3042;43.194;27.646;2024-03-29T02:53:25;101284.78;;;15.40;100.00
6028;BME280;3042;43.194;27.646;2024-03-29T02:55:54;101288.41;;;15.46;100.00
6028;BME280;3042;43.194;27.646;2024-03-29T02:58:21;101299.53;;;15.41;100.00
6028;BME280;3042;43.194;27.646;2024-03-29T03:00:47;101178.56;;;14.79;100.00
6028;BME280;3042;43.194;27.646;2024-03-29T03:03:16;101290.38;;;15.53;100.00
6028;BME280;3042;43.194;27.646;2024-03-29T03:05:45;101280.69;;;15.49;100.00
6028;BME280;3042;43.194;27.646;2024-03-29T03:08:20;101293.22;;;15.60;100.00
6028;BME280;3042;43.194;27.646;2024-03-29T03:11:11;101276.88;;;15.39;100.00
6028;BME280;3042;43.194;27.646;2024-03-29T03:13:47;101296.06;;;15.41;100.00
6028;BME280;3042;43.194;27.646;2024-03-29T03:16:21;101307.97;;;15.34;100.00
6028;BME280;3042;43.194;27.646;2024-03-29T03:18:52;101301.94;;;15.35;100.00
6028;BME280;3042;43.194;27.646;2024-03-29T03:21:27;101200.94;;;14.74;100.00
6028;BME280;3042;43.194;27.646;2024-03-29T03:24:01;101317.03;;;15.20;100.00
6028;BME280;3042;43.194;27.646;2024-03-29T03:26:38;101254.41;;;14.90;100.00
6028;BME280;3042;43.194;27.646;2024-03-29T03:29:15;101325.78;;;15.22;100.00
6028;BME280;3042;43.194;27.646;2024-03-29T03:31:51;101326.56;;;15.19;100.00
6028;BME280;3042;43.194;27.646;2024-03-29T03:34:25;101311.72;;;14.91;100.00
6028;BME280;3042;43.194;27.646;2024-03-29T03:37:02;101310.97;;;14.95;100.00
6028;BME280;3042;43.194;27.646;2024-03-29T03:39:37;101294.81;;;14.80;100.00
6028;BME280;3042;43.194;27.646;2024-03-29T03:42:16;101289.38;;;14.74;100.00
6028;BME280;3042;43.194;27.646;2024-03-29T03:44:50;101260.09;;;14.55;100.00
6028;BME280;3042;43.194;27.646;2024-03-29T03:47:27;101305.41;;;14.86;100.00
6028;BME280;3042;43.194;27.646;2024-03-29T03:49:59;101327.84;;;15.07;100.00
6028;BME280;3042;43.194;27.646;2024-03-29T03:52:35;101330.50;;;15.08;100.00
6028;BME280;3042;43.194;27.646;2024-03-29T03:55:08;101335.75;;;15.10;100.00
6028;BME280;3042;43.194;27.646;2024-03-29T03:57:49;101346.16;;;15.10;100.00
6028;BME280;3042;43.194;27.646;2024-03-29T04:00:27;101343.53;;;15.08;100.00
6028;BME280;3042;43.194;27.646;2024-03-29T04:02:55;101351.03;;;15.01;100.00
6028;BME280;3042;43.194;27.646;2024-03-29T04:05:23;101354.81;;;15.09;100.00
6028;BME280;3042;43.194;27.646;2024-03-29T04:07:50;101196.72;;;14.05;100.00
6028;BME280;3042;43.194;27.646;2024-03-29T04:10:17;101359.78;;;15.03;100.00
6028;BME280;3042;43.194;27.646;2024-03-29T04:12:45;101322.03;;;14.66;100.00
6028;BME280;3042;43.194;27.646;2024-03-29T04:15:12;101380.63;;;15.03;100.00
6028;BME280;3042;43.194;27.646;2024-03-29T04:17:38;101384.28;;;15.08;100.00
6028;BME280;3042;43.194;27.646;2024-03-29T04:20:06;101296.06;;;14.67;100.00
6028;BME280;3042;43.194;27.646;2024-03-29T04:22:32;101388.16;;;15.19;100.00
6028;BME280;3042;43.194;27.646;2024-03-29T04:25:00;101341.25;;;14.93;100.00
6028;BME280;3042;43.194;27.646;2024-03-29T04:27:26;101383.41;;;15.31;100.00
6028;BME280;3042;43.194;27.646;2024-03-29T04:29:55;101389.97;;;15.46;100.00
6028;BME280;3042;43.194;27.646;2024-03-29T04:32:21;101388.22;;;15.70;100.00
6028;BME280;3042;43.194;27.646;2024-03-29T04:34:49;101394.00;;;15.87;100.00
6028;BME280;3042;43.194;27.646;2024-03-29T04:37:16;101399.97;;;16.10;100.00
6028;BME280;3042;43.194;27.646;2024-03-29T04:39:44;101390.03;;;16.25;100.00
6028;BME280;3042;43.194;27.646;2024-03-29T04:42:12;101395.34;;;16.29;100.00
6028;BME280;3042;43.194;27.646;2024-03-29T04:44:40;101403.53;;;16.39;100.00
6028;BME280;3042;43.194;27.646;2024-03-29T04:47:09;101408.09;;;16.48;100.00
6028;BME280;3042;43.194;27.646;2024-03-29T04:49:36;101418.25;;;16.66;100.00
6028;BME280;3042;43.194;27.646;2024-03-29T04:52:04;101388.75;;;16.40;100.00
6028;BME280;3042;43.194;27.646;2024-03-29T04:54:31;101416.22;;;16.84;100.00
6028;BME280;3042;43.194;27.646;2024-03-29T04:56:59;101220.09;;;15.81;100.00
6028;BME280;3042;43.194;27.646;2024-03-29T04:59:27;101427.34;;;17.07;100.00
6028;BME280;3042;43.194;27.646;2024-03-29T05:01:55;101429.94;;;17.39;100.00
6028;BME280;3042;43.194;27.646;2024-03-29T05:04:24;101421.00;;;17.63;100.00
6028;BME280;3042;43.194;27.646;2024-03-29T05:06:52;101425.22;;;17.89;100.00
6028;BME280;3042;43.194;27.646;2024-03-29T05:09:20;101428.22;;;18.05;100.00
6028;BME280;3042;43.194;27.646;2024-03-29T05:11:47;101428.59;;;18.20;100.00
6028;BME280;3042;43.194;27.646;2024-03-29T05:14:15;101434.88;;;18.27;100.00
6028;BME280;3042;43.194;27.646;2024-03-29T05:16:44;101439.00;;;18.55;100.00
6028;BME280;3042;43.194;27.646;2024-03-29T05:19:11;101439.56;;;18.42;100.00
6028;BME280;3042;43.194;27.646;2024-03-29T05:21:40;101442.97;;;18.75;100.00
6028;BME280;3042;43.194;27.646;2024-03-29T05:24:08;101414.63;;;18.58;100.00
6028;BME280;3042;43.194;27.646;2024-03-29T05:26:35;101456.47;;;18.94;100.00
6028;BME280;3042;43.194;27.646;2024-03-29T05:29:02;101451.50;;;19.06;100.00
6028;BME280;3042;43.194;27.646;2024-03-29T05:31:30;101460.28;;;19.08;100.00
6028;BME280;3042;43.194;27.646;2024-03-29T05:33:58;101465.88;;;19.27;100.00
6028;BME280;3042;43.194;27.646;2024-03-29T05:36:26;101473.88;;;19.33;100.00
6028;BME280;3042;43.194;27.646;2024-03-29T05:38:55;101471.44;;;19.42;100.00
6028;BME280;3042;43.194;27.646;2024-03-29T05:41:22;101467.25;;;19.52;100.00
6028;BME280;3042;43.194;27.646;2024-03-29T05:43:49;101475.72;;;19.81;100.00
6028;BME280;3042;43.194;27.646;2024-03-29T05:46:17;101474.63;;;20.18;100.00
6028;BME280;3042;43.194;27.646;2024-03-29T05:48:44;101482.03;;;20.45;100.00
6028;BME280;3042;43.194;27.646;2024-03-29T05:51:11;101473.81;;;20.77;100.00
6028;BME280;3042;43.194;27.646;2024-03-29T05:53:39;101480.50;;;21.19;100.00
6028;BME280;3042;43.194;27.646;2024-03-29T05:56:07;101480.06;;;21.54;100.00
6028;BME280;3042;43.194;27.646;2024-03-29T05:58:35;101480.47;;;21.94;100.00
6028;BME280;3042;43.194;27.646;2024-03-29T06:01:02;101479.06;;;22.30;100.00
6028;BME280;3042;43.194;27.646;2024-03-29T06:03:29;101484.53;;;22.58;100.00
6028;BME280;3042;43.194;27.646;2024-03-29T06:05:56;101482.88;;;22.75;100.00
6028;BME280;3042;43.194;27.646;2024-03-29T06:08:24;101491.00;;;23.07;100.00
6028;BME280;3042;43.194;27.646;2024-03-29T06:10:52;101483.28;;;23.64;100.00
6028;BME280;3042;43.194;27.646;2024-03-29T06:13:21;101481.63;;;24.21;100.00
6028;BME280;3042;43.194;27.646;2024-03-29T06:16:11;101480.75;;;24.64;100.00
6028;BME280;3042;43.194;27.646;2024-03-29T06:18:55;101482.22;;;25.46;100.00
6028;BME280;3042;43.194;27.646;2024-03-29T06:21:23;101485.50;;;25.92;100.00
6028;BME280;3042;43.194;27.646;2024-03-29T06:23:50;101452.78;;;26.02;100.00
6028;BME280;3042;43.194;27.646;2024-03-29T06:26:17;101489.59;;;26.32;100.00
6028;BME280;3042;43.194;27.646;2024-03-29T06:28:46;101353.03;;;25.99;100.00
6028;BME280;3042;43.194;27.646;2024-03-29T06:31:13;101497.19;;;26.72;100.00
6028;BME280;3042;43.194;27.646;2024-03-29T06:33:40;101344.44;;;25.68;100.00
6028;BME280;3042;43.194;27.646;2024-03-29T06:36:07;101513.16;;;26.68;100.00
6028;BME280;3042;43.194;27.646;2024-03-29T06:38:34;101523.03;;;26.49;100.00
6028;BME280;3042;43.194;27.646;2024-03-29T06:41:01;101456.38;;;25.95;100.00
6028;BME280;3042;43.194;27.646;2024-03-29T06:43:29;101526.53;;;26.54;100.00
6028;BME280;3042;43.194;27.646;2024-03-29T06:45:57;101524.81;;;26.47;100.00
6028;BME280;3042;43.194;27.646;2024-03-29T06:48:25;101454.41;;;26.18;100.00
6028;BME280;3042;43.194;27.646;2024-03-29T06:50:52;101524.28;;;27.01;100.00
6028;BME280;3042;43.194;27.646;2024-03-29T06:53:19;101524.53;;;27.55;100.00
6028;BME280;3042;43.194;27.646;2024-03-29T06:55:48;101522.59;;;27.68;100.00
6028;BME280;3042;43.194;27.646;2024-03-29T06:58:16;101533.75;;;27.26;100.00
6028;BME280;3042;43.194;27.646;2024-03-29T07:00:45;101522.22;;;26.36;100.00
6028;BME280;3042;43.194;27.646;2024-03-29T07:03:13;101517.91;;;26.24;100.00
6028;BME280;3042;43.194;27.646;2024-03-29T07:05:41;101537.19;;;26.45;100.00
6028;BME280;3042;43.194;27.646;2024-03-29T07:08:08;101533.41;;;26.77;100.00
6028;BME280;3042;43.194;27.646;2024-03-29T07:10:35;101540.16;;;27.04;100.00
6028;BME280;3042;43.194;27.646;2024-03-29T07:13:02;101532.16;;;27.10;100.00
6028;BME280;3042;43.194;27.646;2024-03-29T07:15:30;101542.06;;;26.94;99.02
6028;BME280;3042;43.194;27.646;2024-03-29T07:17:57;101544.19;;;26.52;99.63
6028;BME280;3042;43.194;27.646;2024-03-29T07:20:26;101546.63;;;26.78;96.95
6028;BME280;3042;43.194;27.646;2024-03-29T07:22:53;101544.47;;;27.15;97.25
6028;BME280;3042;43.194;27.646;2024-03-29T07:25:20;101538.22;;;27.23;95.90
6028;BME280;3042;43.194;27.646;2024-03-29T07:27:48;101546.59;;;26.83;97.38
6028;BME280;3042;43.194;27.646;2024-03-29T07:30:16;101543.63;;;27.10;100.00
6028;BME280;3042;43.194;27.646;2024-03-29T07:32:43;101541.03;;;27.07;100.00
6028;BME280;3042;43.194;27.646;2024-03-29T07:35:11;101543.69;;;27.07;99.83
6028;BME280;3042;43.194;27.646;2024-03-29T07:37:41;101503.31;;;26.78;96.48
6028;BME280;3042;43.194;27.646;2024-03-29T07:40:11;101534.41;;;27.45;96.16
6028;BME280;3042;43.194;27.646;2024-03-29T07:42:39;101529.78;;;27.61;94.57
6028;BME280;3042;43.194;27.646;2024-03-29T07:45:06;101532.44;;;27.60;93.51
6028;BME280;3042;43.194;27.646;2024-03-29T07:47:34;101520.63;;;27.82;91.67
6028;BME280;3042;43.194;27.646;2024-03-29T07:50:01;101511.88;;;27.74;93.46
6028;BME280;3042;43.194;27.646;2024-03-29T07:52:28;101531.63;;;27.56;90.26
6028;BME280;3042;43.194;27.646;2024-03-29T07:54:57;101534.28;;;27.53;88.47
6028;BME280;3042;43.194;27.646;2024-03-29T07:57:25;101512.84;;;27.67;88.37
6028;BME280;3042;43.194;27.646;2024-03-29T07:59:52;101525.03;;;27.86;89.89
6028;BME280;3042;43.194;27.646;2024-03-29T08:02:19;101517.75;;;27.97;88.13
6028;BME280;3042;43.194;27.646;2024-03-29T08:04:47;101466.38;;;27.98;87.01
6028;BME280;3042;43.194;27.646;2024-03-29T08:07:14;101523.25;;;27.85;84.46
6028;BME280;3042;43.194;27.646;2024-03-29T08:09:41;101519.41;;;28.05;81.58
6028;BME280;3042;43.194;27.646;2024-03-29T08:12:09;101511.94;;;28.28;82.72
6028;BME280;3042;43.194;27.646;2024-03-29T08:14:36;101509.56;;;28.64;82.28
6028;BME280;3042;43.194;27.646;2024-03-29T08:17:04;101488.81;;;28.33;77.76
6028;BME280;3042;43.194;27.646;2024-03-29T08:19:35;101424.91;;;27.88;78.32
6028;BME280;3042;43.194;27.646;2024-03-29T08:22:02;101506.69;;;28.25;77.89
6028;BME280;3042;43.194;27.646;2024-03-29T08:24:29;101510.44;;;28.12;72.31
6028;BME280;3042;43.194;27.646;2024-03-29T08:26:56;101512.00;;;28.25;70.80
6028;BME280;3042;43.194;27.646;2024-03-29T08:29:27;101422.06;;;28.01;68.39
6028;BME280;3042;43.194;27.646;2024-03-29T08:31:54;101457.41;;;28.06;68.79
6028;BME280;3042;43.194;27.646;2024-03-29T08:34:21;101460.75;;;28.17;67.40
6028;BME280;3042;43.194;27.646;2024-03-29T08:36:47;101501.59;;;28.11;67.83
6028;BME280;3042;43.194;27.646;2024-03-29T08:39:15;101502.38;;;28.18;66.85
6028;BME280;3042;43.194;27.646;2024-03-29T08:41:42;101507.69;;;28.18;67.27
6028;BME280;3042;43.194;27.646;2024-03-29T08:44:11;101499.19;;;28.49;66.30
6028;BME280;3042;43.194;27.646;2024-03-29T08:46:39;101507.34;;;28.38;66.73
6028;BME280;3042;43.194;27.646;2024-03-29T08:49:07;101506.28;;;28.50;65.67
6028;BME280;3042;43.194;27.646;2024-03-29T08:51:34;101501.25;;;28.31;65.11
6028;BME280;3042;43.194;27.646;2024-03-29T08:54:01;101499.22;;;28.46;65.32
6028;BME280;3042;43.194;27.646;2024-03-29T08:56:30;101507.88;;;28.58;65.86
6028;BME280;3042;43.194;27.646;2024-03-29T08:58:58;101488.22;;;28.67;64.87
6028;BME280;3042;43.194;27.646;2024-03-29T09:01:28;101467.97;;;28.61;66.22
6028;BME280;3042;43.194;27.646;2024-03-29T09:03:57;101481.63;;;28.88;65.30
6028;BME280;3042;43.194;27.646;2024-03-29T09:06:24;101441.63;;;28.46;63.97
6028;BME280;3042;43.194;27.646;2024-03-29T09:08:52;101483.41;;;28.88;63.59
6028;BME280;3042;43.194;27.646;2024-03-29T09:11:19;101437.09;;;28.53;62.95
6028;BME280;3042;43.194;27.646;2024-03-29T09:13:46;101477.16;;;28.89;64.66
6028;BME280;3042;43.194;27.646;2024-03-29T09:16:14;101475.84;;;28.66;63.71
6028;BME280;3042;43.194;27.646;2024-03-29T09:18:41;101480.06;;;28.76;62.55
6028;BME280;3042;43.194;27.646;2024-03-29T09:21:09;101458.44;;;28.50;62.60
6028;BME280;3042;43.194;27.646;2024-03-29T09:23:37;101272.25;;;27.56;62.47
6028;BME280;3042;43.194;27.646;2024-03-29T09:26:07;101476.81;;;29.07;63.48
6028;BME280;3042;43.194;27.646;2024-03-29T09:28:34;101479.09;;;29.25;62.75
6028;BME280;3042;43.194;27.646;2024-03-29T09:31:02;101473.09;;;29.17;61.24
6028;BME280;3042;43.194;27.646;2024-03-29T09:33:30;101467.19;;;29.00;61.56
6028;BME280;3042;43.194;27.646;2024-03-29T09:35:58;101481.16;;;29.13;61.64
6028;BME280;3042;43.194;27.646;2024-03-29T09:38:27;101468.28;;;29.33;61.15
6028;BME280;3042;43.194;27.646;2024-03-29T09:41:03;101466.94;;;29.14;60.46
6028;BME280;3042;43.194;27.646;2024-03-29T09:43:32;101466.16;;;29.09;62.59
6028;BME280;3042;43.194;27.646;2024-03-29T09:45:59;101462.19;;;29.27;60.35
6028;BME280;3042;43.194;27.646;2024-03-29T09:48:27;101446.66;;;29.08;60.65
6028;BME280;3042;43.194;27.646;2024-03-29T09:51:03;101446.84;;;29.39;60.77
6028;BME280;3042;43.194;27.646;2024-03-29T09:53:32;101460.06;;;29.44;60.94
6028;BME280;3042;43.194;27.646;2024-03-29T09:56:03;101448.13;;;29.60;59.48
6028;BME280;3042;43.194;27.646;2024-03-29T09:58:30;101436.44;;;29.67;60.02
6028;BME280;3042;43.194;27.646;2024-03-29T10:00:58;101434.72;;;29.63;60.92
6028;BME280;3042;43.194;27.646;2024-03-29T10:03:25;101414.91;;;29.38;61.11
6028;BME280;3042;43.194;27.646;2024-03-29T10:05:56;101437.34;;;29.66;61.18
6028;BME280;3042;43.194;27.646;2024-03-29T10:08:25;101430.69;;;29.86;60.70
6028;BME280;3042;43.194;27.646;2024-03-29T10:10:55;101429.22;;;29.73;60.17
6028;BME280;3042;43.194;27.646;2024-03-29T10:13:22;101426.31;;;29.83;62.23
6028;BME280;3042;43.194;27.646;2024-03-29T10:15:49;101428.28;;;30.09;60.89
6028;BME280;3042;43.194;27.646;2024-03-29T10:18:19;101430.09;;;30.09;59.93
6028;BME280;3042;43.194;27.646;2024-03-29T10:20:46;101395.03;;;29.90;58.81
6028;BME280;3042;43.194;27.646;2024-03-29T10:23:14;101419.31;;;30.14;59.62
6028;BME280;3042;43.194;27.646;2024-03-29T10:25:43;101423.44;;;29.91;60.09
6028;BME280;3042;43.194;27.646;2024-03-29T10:28:12;101415.88;;;30.08;59.12
6028;BME280;3042;43.194;27.646;2024-03-29T10:30:39;101413.66;;;30.27;59.93
6028;BME280;3042;43.194;27.646;2024-03-29T10:33:07;101411.47;;;30.42;61.56
6028;BME280;3042;43.194;27.646;2024-03-29T10:35:34;101412.06;;;30.19;58.27
6028;BME280;3042;43.194;27.646;2024-03-29T10:38:02;101404.59;;;30.33;57.90
6028;BME280;3042;43.194;27.646;2024-03-29T10:40:30;101394.00;;;30.30;57.62
6028;BME280;3042;43.194;27.646;2024-03-29T10:42:57;101412.06;;;30.19;59.09
6028;BME280;3042;43.194;27.646;2024-03-29T10:45:27;101396.81;;;30.57;57.93
6028;BME280;3042;43.194;27.646;2024-03-29T10:47:56;101387.44;;;30.73;57.02
6028;BME280;3042;43.194;27.646;2024-03-29T10:50:24;101396.59;;;30.64;55.87
6028;BME280;3042;43.194;27.646;2024-03-29T10:52:53;101398.41;;;30.62;56.78
6028;BME280;3042;43.194;27.646;2024-03-29T10:55:21;101388.44;;;30.69;56.45
6028;BME280;3042;43.194;27.646;2024-03-29T10:57:53;101391.91;;;31.04;56.59
6028;BME280;3042;43.194;27.646;2024-03-29T11:00:22;101400.91;;;31.00;56.15
6028;BME280;3042;43.194;27.646;2024-03-29T11:02:57;101405.53;;;30.95;55.01
6028;BME280;3042;43.194;27.646;2024-03-29T11:05:28;101399.09;;;30.70;56.61
6028;BME280;3042;43.194;27.646;2024-03-29T11:07:56;101320.78;;;30.09;56.48
6028;BME280;3042;43.194;27.646;2024-03-29T11:10:25;101405.09;;;31.08;54.61
6028;BME280;3042;43.194;27.646;2024-03-29T11:12:59;101420.00;;;30.86;53.87
6028;BME280;3042;43.194;27.646;2024-03-29T11:15:30;101414.91;;;31.08;53.33
6028;BME280;3042;43.194;27.646;2024-03-29T11:17:59;101418.59;;;31.04;54.51
6028;BME280;3042;43.194;27.646;2024-03-29T11:20:29;101415.59;;;30.83;53.22
6028;BME280;3042;43.194;27.646;2024-03-29T11:23:08;101412.91;;;30.86;55.00
6028;BME280;3042;43.194;27.646;2024-03-29T11:25:40;101420.94;;;30.83;52.96
6028;BME280;3042;43.194;27.646;2024-03-29T11:28:08;101332.88;;;30.54;53.38
6028;BME280;3042;43.194;27.646;2024-03-29T11:30:42;101431.97;;;30.71;52.39
6028;BME280;3042;43.194;27.646;2024-03-29T11:33:31;101420.59;;;30.64;53.44
6028;BME280;3042;43.194;27.646;2024-03-29T11:36:00;101414.50;;;30.61;52.02
6028;BME280;3042;43.194;27.646;2024-03-29T11:38:34;101346.63;;;30.05;51.50
6028;BME280;3042;43.194;27.646;2024-03-29T11:41:02;101333.06;;;30.47;52.06
6028;BME280;3042;43.194;27.646;2024-03-29T11:43:30;101340.97;;;30.80;51.33
6028;BME280;3042;43.194;27.646;2024-03-29T11:45:58;101397.13;;;31.07;51.13
6028;BME280;3042;43.194;27.646;2024-03-29T11:48:30;101397.75;;;31.17;50.66
6028;BME280;3042;43.194;27.646;2024-03-29T11:50:58;101340.53;;;30.96;50.15
6028;BME280;3042;43.194;27.646;2024-03-29T11:53:26;101396.69;;;31.50;50.57
6028;BME280;3042;43.194;27.646;2024-03-29T11:55:55;101408.47;;;31.45;50.63
6028;BME280;3042;43.194;27.646;2024-03-29T11:58:23;101405.34;;;31.30;49.79
6028;BME280;3042;43.194;27.646;2024-03-29T12:00:51;101371.81;;;31.20;49.52
6028;BME280;3042;43.194;27.646;2024-03-29T12:03:19;101407.88;;;31.63;50.61
6028;BME280;3042;43.194;27.646;2024-03-29T12:05:50;101418.03;;;31.22;51.76
6028;BME280;3042;43.194;27.646;2024-03-29T12:08:19;101353.63;;;31.31;50.49
6028;BME280;3042;43.194;27.646;2024-03-29T12:10:47;101401.53;;;31.38;51.24
6028;BME280;3042;43.194;27.646;2024-03-29T12:13:16;101401.47;;;31.41;52.05
6028;BME280;3042;43.194;27.646;2024-03-29T12:15:44;101314.19;;;30.83;50.47
6028;BME280;3042;43.194;27.646;2024-03-29T12:18:11;101303.78;;;30.74;51.36
6028;BME280;3042;43.194;27.646;2024-03-29T12:20:42;101402.69;;;31.29;52.07
6028;BME280;3042;43.194;27.646;2024-03-29T12:23:16;101398.94;;;31.63;52.20
6028;BME280;3042;43.194;27.646;2024-03-29T12:25:44;101391.09;;;31.85;52.34
6028;BME280;3042;43.194;27.646;2024-03-29T12:28:13;101419.22;;;31.42;52.61
6028;BME280;3042;43.194;27.646;2024-03-29T12:30:42;101416.19;;;31.24;52.71
6028;BME280;3042;43.194;27.646;2024-03-29T12:33:12;101402.72;;;31.57;51.92
6028;BME280;3042;43.194;27.646;2024-03-29T12:35:41;101396.81;;;31.74;52.08
6028;BME280;3042;43.194;27.646;2024-03-29T12:38:11;101389.66;;;31.74;52.66
6028;BME280;3042;43.194;27.646;2024-03-29T12:40:41;101386.25;;;31.69;53.35
6028;BME280;3042;43.194;27.646;2024-03-29T12:43:10;101386.56;;;31.60;52.10
6028;BME280;3042;43.194;27.646;2024-03-29T12:45:39;101398.34;;;31.54;51.79
6028;BME280;3042;43.194;27.646;2024-03-29T12:48:10;101409.63;;;31.34;51.60
6028;BME280;3042;43.194;27.646;2024-03-29T12:50:40;101396.59;;;31.53;50.93
6028;BME280;3042;43.194;27.646;2024-03-29T12:53:08;101391.72;;;31.66;50.11
6028;BME280;3042;43.194;27.646;2024-03-29T12:55:37;101398.25;;;31.58;51.39
6028;BME280;3042;43.194;27.646;2024-03-29T12:58:08;101399.41;;;31.49;50.61
6028;BME280;3042;43.194;27.646;2024-03-29T13:00:37;101394.53;;;31.62;50.88
6028;BME280;3042;43.194;27.646;2024-03-29T13:03:04;101188.34;;;30.09;50.52
6028;BME280;3042;43.194;27.646;2024-03-29T13:05:32;101397.84;;;31.42;50.97